sensor_id;sensor_type;location;lat;lon;timestamp;temperature;humidity
31046;DHT22;17711;54.018;9.300;2023-03-31T00:01:25;11.50;99.90
31046;DHT22;17711;54.018;9.300;2023-03-31T00:03:56;11.50;99.90
31046;DHT22;17711;54.018;9.300;2023-03-31T00:06:33;11.50;99.90
31046;DHT22;17711;54.018;9.300;2023-03-31T00:09:05;11.50;99.90
31046;DHT22;17711;54.018;9.300;2023-03-31T00:11:37;11.50;99.90
31046;DHT22;17711;54.018;9.300;2023-03-31T00:14:07;11.40;99.90
31046;DHT22;17711;54.018;9.300;2023-03-31T00:16:37;11.50;99.90
31046;DHT22;17711;54.018;9.300;2023-03-31T00:19:08;11.40;99.90
31046;DHT22;17711;54.018;9.300;2023-03-31T00:21:44;11.40;99.90
31046;DHT22;17711;54.018;9.300;2023-03-31T00:24:14;11.50;99.90
31046;DHT22;17711;54.018;9.300;2023-03-31T00:26:43;11.50;99.90
31046;DHT22;17711;54.018;9.300;2023-03-31T00:29:12;11.50;99.90
31046;DHT22;17711;54.018;9.300;2023-03-31T00:31:41;11.40;99.90
31046;DHT22;17711;54.018;9.300;2023-03-31T00:34:11;11.40;99.90
31046;DHT22;17711;54.018;9.300;2023-03-31T00:36:41;11.40;99.90
31046;DHT22;17711;54.018;9.300;2023-03-31T00:39:16;11.40;99.90
31046;DHT22;17711;54.018;9.300;2023-03-31T00:41:45;11.40;99.90
31046;DHT22;17711;54.018;9.300;2023-03-31T00:44:15;11.30;99.90
31046;DHT22;17711;54.018;9.300;2023-03-31T00:46:51;11.30;99.90
31046;DHT22;17711;54.018;9.300;2023-03-31T00:49:26;11.40;99.90
31046;DHT22;17711;54.018;9.300;2023-03-31T00:52:00;11.30;99.90
31046;DHT22;17711;54.018;9.300;2023-03-31T00:54:30;11.30;99.90
31046;DHT22;17711;54.018;9.300;2023-03-31T00:57:01;11.30;99.90
31046;DHT22;17711;54.018;9.300;2023-03-31T00:59:36;11.30;99.90
31046;DHT22;17711;54.018;9.300;2023-03-31T01:02:05;11.20;99.90
31046;DHT22;17711;54.018;9.300;2023-03-31T01:04:39;11.30;99.90
31046;DHT22;17711;54.018;9.300;2023-03-31T01:07:13;11.20;99.90
31046;DHT22;17711;54.018;9.300;2023-03-31T01:09:45;11.20;99.90
31046;DHT22;17711;54.018;9.300;2023-03-31T01:12:16;11.20;99.90
31046;DHT22;17711;54.018;9.300;2023-03-31T01:14:45;11.30;99.90
31046;DHT22;17711;54.018;9.300;2023-03-31T01:17:18;11.20;99.90
31046;DHT22;17711;54.018;9.300;2023-03-31T01:19:58;11.20;99.90
31046;DHT22;17711;54.018;9.300;2023-03-31T01:26:26;11.20;99.90
31046;DHT22;17711;54.018;9.300;2023-03-31T01:29:05;11.20;99.90
31046;DHT22;17711;54.018;9.300;2023-03-31T01:31:56;11.20;99.90
31046;DHT22;17711;54.018;9.300;2023-03-31T01:34:55;11.20;99.90
31046;DHT22;17711;54.018;9.300;2023-03-31T01:37:48;11.10;99.90
31046;DHT22;17711;54.018;9.300;2023-03-31T01:40:48;11.10;99.90
31046;DHT22;17711;54.018;9.300;2023-03-31T01:43:23;11.10;99.90
31046;DHT22;17711;54.018;9.300;2023-03-31T01:45:59;11.10;99.90
31046;DHT22;17711;54.018;9.300;2023-03-31T01:48:37;11.10;99.90
31046;DHT22;17711;54.018;9.300;2023-03-31T01:51:16;11.20;99.90
31046;DHT22;17711;54.018;9.300;2023-03-31T01:53:50;11.20;99.90
31046;DHT22;17711;54.018;9.300;2023-03-31T01:56:24;11.20;99.90
31046;DHT22;17711;54.018;9.300;2023-03-31T01:58:58;11.20;99.90
31046;DHT22;17711;54.018;9.300;2023-03-31T02:01:31;11.20;99.90
31046;DHT22;17711;54.018;9.300;2023-03-31T02:04:09;11.30;99.90
31046;DHT22;17711;54.018;9.300;2023-03-31T02:06:46;11.30;99.90
31046;DHT22;17711;54.018;9.300;2023-03-31T02:09:21;11.20;99.90
31046;DHT22;17711;54.018;9.300;2023-03-31T02:11:53;11.20;99.90
31046;DHT22;17711;54.018;9.300;2023-03-31T02:14:25;11.20;99.90
31046;DHT22;17711;54.018;9.300;2023-03-31T02:16:57;11.20;99.90
31046;DHT22;17711;54.018;9.300;2023-03-31T02:19:31;11.20;99.90
31046;DHT22;17711;54.018;9.300;2023-03-31T02:22:02;11.20;99.90
31046;DHT22;17711;54.018;9.300;2023-03-31T02:24:34;11.20;99.90
31046;DHT22;17711;54.018;9.300;2023-03-31T02:27:10;11.20;99.90
31046;DHT22;17711;54.018;9.300;2023-03-31T02:29:41;11.20;99.90
31046;DHT22;17711;54.018;9.300;2023-03-31T02:32:14;11.20;99.90
31046;DHT22;17711;54.018;9.300;2023-03-31T02:34:46;11.20;99.90
31046;DHT22;17711;54.018;9.300;2023-03-31T02:37:15;11.20;99.90
31046;DHT22;17711;54.018;9.300;2023-03-31T02:39:47;11.20;99.90
31046;DHT22;17711;54.018;9.300;2023-03-31T02:42:17;11.20;99.90
31046;DHT22;17711;54.018;9.300;2023-03-31T02:44:46;11.20;99.90
31046;DHT22;17711;54.018;9.300;2023-03-31T02:47:17;11.20;99.90
31046;DHT22;17711;54.018;9.300;2023-03-31T02:49:49;11.20;99.90
31046;DHT22;17711;54.018;9.300;2023-03-31T02:52:36;11.20;99.90
31046;DHT22;17711;54.018;9.300;2023-03-31T02:55:39;11.10;99.90
31046;DHT22;17711;54.018;9.300;2023-03-31T02:58:39;11.10;99.90
31046;DHT22;17711;54.018;9.300;2023-03-31T03:01:40;11.10;99.90
31046;DHT22;17711;54.018;9.300;2023-03-31T03:07:06;11.10;99.90
31046;DHT22;17711;54.018;9.300;2023-03-31T03:09:44;11.10;99.90
31046;DHT22;17711;54.018;9.300;2023-03-31T03:12:19;11.20;99.90
31046;DHT22;17711;54.018;9.300;2023-03-31T03:14:54;11.20;99.90
31046;DHT22;17711;54.018;9.300;2023-03-31T03:17:33;11.20;99.90
31046;DHT22;17711;54.018;9.300;2023-03-31T03:20:05;11.20;99.90
31046;DHT22;17711;54.018;9.300;2023-03-31T03:22:36;11.20;99.90
31046;DHT22;17711;54.018;9.300;2023-03-31T03:25:06;11.20;99.90
31046;DHT22;17711;54.018;9.300;2023-03-31T03:27:36;11.20;99.90
31046;DHT22;17711;54.018;9.300;2023-03-31T03:30:10;11.20;99.90
31046;DHT22;17711;54.018;9.300;2023-03-31T03:32:39;11.20;99.90
31046;DHT22;17711;54.018;9.300;2023-03-31T03:35:09;11.20;99.90
31046;DHT22;17711;54.018;9.300;2023-03-31T03:37:39;11.20;99.90
31046;DHT22;17711;54.018;9.300;2023-03-31T03:40:08;11.20;99.90
31046;DHT22;17711;54.018;9.300;2023-03-31T03:42:37;11.20;99.90
31046;DHT22;17711;54.018;9.300;2023-03-31T03:45:08;11.20;99.90
31046;DHT22;17711;54.018;9.300;2023-03-31T03:47:37;11.20;99.90
31046;DHT22;17711;54.018;9.300;2023-03-31T03:50:08;11.20;99.90
31046;DHT22;17711;54.018;9.300;2023-03-31T03:52:40;11.20;99.90
31046;DHT22;17711;54.018;9.300;2023-03-31T03:55:09;11.20;99.90
31046;DHT22;17711;54.018;9.300;2023-03-31T03:57:39;11.20;99.90
31046;DHT22;17711;54.018;9.300;2023-03-31T04:00:10;11.20;99.90
31046;DHT22;17711;54.018;9.300;2023-03-31T04:02:39;11.20;99.90
31046;DHT22;17711;54.018;9.300;2023-03-31T04:05:08;11.20;99.90
31046;DHT22;17711;54.018;9.300;2023-03-31T04:07:40;11.20;99.90
31046;DHT22;17711;54.018;9.300;2023-03-31T04:10:10;11.30;99.90
31046;DHT22;17711;54.018;9.300;2023-03-31T04:12:39;11.30;99.90
31046;DHT22;17711;54.018;9.300;2023-03-31T04:15:11;11.30;99.90
31046;DHT22;17711;54.018;9.300;2023-03-31T04:17:39;11.30;99.90
31046;DHT22;17711;54.018;9.300;2023-03-31T04:20:09;11.30;99.90
31046;DHT22;17711;54.018;9.300;2023-03-31T04:22:41;11.30;99.90
31046;DHT22;17711;54.018;9.300;2023-03-31T04:25:14;11.30;99.90
31046;DHT22;17711;54.018;9.300;2023-03-31T04:27:46;11.30;99.90
31046;DHT22;17711;54.018;9.300;2023-03-31T04:30:23;11.30;99.90
31046;DHT22;17711;54.018;9.300;2023-03-31T04:32:58;11.30;99.90
31046;DHT22;17711;54.018;9.300;2023-03-31T04:35:29;11.30;99.90
31046;DHT22;17711;54.018;9.300;2023-03-31T04:38:08;11.30;99.90
31046;DHT22;17711;54.018;9.300;2023-03-31T04:40:37;11.20;99.90
31046;DHT22;17711;54.018;9.300;2023-03-31T04:43:07;11.30;99.90
31046;DHT22;17711;54.018;9.300;2023-03-31T04:45:37;11.30;99.90
31046;DHT22;17711;54.018;9.300;2023-03-31T04:48:07;11.30;99.90
31046;DHT22;17711;54.018;9.300;2023-03-31T04:50:36;11.30;99.90
31046;DHT22;17711;54.018;9.300;2023-03-31T04:53:05;11.30;99.90
31046;DHT22;17711;54.018;9.300;2023-03-31T04:55:35;11.30;99.90
31046;DHT22;17711;54.018;9.300;2023-03-31T04:58:03;11.30;99.90
31046;DHT22;17711;54.018;9.300;2023-03-31T05:00:32;11.30;99.90
31046;DHT22;17711;54.018;9.300;2023-03-31T05:03:03;11.30;99.90
31046;DHT22;17711;54.018;9.300;2023-03-31T05:05:33;11.40;99.90
31046;DHT22;17711;54.018;9.300;2023-03-31T05:08:03;11.30;99.90
31046;DHT22;17711;54.018;9.300;2023-03-31T05:10:33;11.30;99.90
31046;DHT22;17711;54.018;9.300;2023-03-31T05:13:02;11.30;99.90
31046;DHT22;17711;54.018;9.300;2023-03-31T05:15:31;11.40;99.90
31046;DHT22;17711;54.018;9.300;2023-03-31T05:18:01;11.30;99.90
31046;DHT22;17711;54.018;9.300;2023-03-31T05:20:31;11.30;99.90
31046;DHT22;17711;54.018;9.300;2023-03-31T05:22:59;11.30;99.90
31046;DHT22;17711;54.018;9.300;2023-03-31T05:25:28;11.40;99.90
31046;DHT22;17711;54.018;9.300;2023-03-31T05:28:00;11.40;99.90
31046;DHT22;17711;54.018;9.300;2023-03-31T05:30:29;11.40;99.90
31046;DHT22;17711;54.018;9.300;2023-03-31T05:32:57;11.40;99.90
31046;DHT22;17711;54.018;9.300;2023-03-31T05:35:26;11.50;99.90
31046;DHT22;17711;54.018;9.300;2023-03-31T05:37:57;11.50;99.90
31046;DHT22;17711;54.018;9.300;2023-03-31T05:40:26;11.50;99.90
31046;DHT22;17711;54.018;9.300;2023-03-31T05:42:54;11.50;99.90
31046;DHT22;17711;54.018;9.300;2023-03-31T05:45:23;11.50;99.90
31046;DHT22;17711;54.018;9.300;2023-03-31T05:47:51;11.50;99.90
31046;DHT22;17711;54.018;9.300;2023-03-31T05:50:20;11.50;99.90
31046;DHT22;17711;54.018;9.300;2023-03-31T05:52:49;11.60;99.90
31046;DHT22;17711;54.018;9.300;2023-03-31T05:55:19;11.60;99.90
31046;DHT22;17711;54.018;9.300;2023-03-31T05:57:48;11.60;99.90
31046;DHT22;17711;54.018;9.300;2023-03-31T06:00:17;11.60;99.90
31046;DHT22;17711;54.018;9.300;2023-03-31T06:02:46;11.60;99.90
31046;DHT22;17711;54.018;9.300;2023-03-31T06:05:15;11.60;99.90
31046;DHT22;17711;54.018;9.300;2023-03-31T06:07:43;11.70;99.90
31046;DHT22;17711;54.018;9.300;2023-03-31T06:10:12;11.70;99.90
31046;DHT22;17711;54.018;9.300;2023-03-31T06:12:42;11.70;99.90
31046;DHT22;17711;54.018;9.300;2023-03-31T06:15:10;11.70;99.90
31046;DHT22;17711;54.018;9.300;2023-03-31T06:17:39;11.80;99.90
31046;DHT22;17711;54.018;9.300;2023-03-31T06:20:08;11.90;99.90
31046;DHT22;17711;54.018;9.300;2023-03-31T06:22:54;11.90;99.90
31046;DHT22;17711;54.018;9.300;2023-03-31T06:25:25;11.90;99.90
31046;DHT22;17711;54.018;9.300;2023-03-31T06:28:04;12.00;99.90
31046;DHT22;17711;54.018;9.300;2023-03-31T06:30:34;12.10;99.90
31046;DHT22;17711;54.018;9.300;2023-03-31T06:33:03;12.20;99.90
31046;DHT22;17711;54.018;9.300;2023-03-31T06:35:31;12.20;99.90
31046;DHT22;17711;54.018;9.300;2023-03-31T06:38:00;12.30;99.90
31046;DHT22;17711;54.018;9.300;2023-03-31T06:40:29;12.40;99.90
31046;DHT22;17711;54.018;9.300;2023-03-31T06:42:57;12.50;99.90
31046;DHT22;17711;54.018;9.300;2023-03-31T06:45:27;12.60;99.90
31046;DHT22;17711;54.018;9.300;2023-03-31T06:47:56;12.70;99.90
31046;DHT22;17711;54.018;9.300;2023-03-31T06:50:25;12.80;99.90
31046;DHT22;17711;54.018;9.300;2023-03-31T06:52:57;12.80;99.90
31046;DHT22;17711;54.018;9.300;2023-03-31T06:55:33;12.80;99.90
31046;DHT22;17711;54.018;9.300;2023-03-31T06:58:02;12.80;99.90
31046;DHT22;17711;54.018;9.300;2023-03-31T07:00:32;12.80;99.90
31046;DHT22;17711;54.018;9.300;2023-03-31T07:03:02;12.80;99.90
31046;DHT22;17711;54.018;9.300;2023-03-31T07:05:30;12.90;99.90
31046;DHT22;17711;54.018;9.300;2023-03-31T07:07:59;13.00;99.90
31046;DHT22;17711;54.018;9.300;2023-03-31T07:10:30;13.00;99.90
31046;DHT22;17711;54.018;9.300;2023-03-31T07:13:00;13.00;99.90
31046;DHT22;17711;54.018;9.300;2023-03-31T07:15:34;13.10;99.90
31046;DHT22;17711;54.018;9.300;2023-03-31T07:18:02;13.10;99.90
31046;DHT22;17711;54.018;9.300;2023-03-31T07:20:31;13.10;99.90
31046;DHT22;17711;54.018;9.300;2023-03-31T07:23:03;13.10;99.90
31046;DHT22;17711;54.018;9.300;2023-03-31T07:25:32;13.00;99.90
31046;DHT22;17711;54.018;9.300;2023-03-31T07:28:01;13.00;99.90
31046;DHT22;17711;54.018;9.300;2023-03-31T07:30:30;13.00;99.90
31046;DHT22;17711;54.018;9.300;2023-03-31T07:33:04;13.00;99.90
31046;DHT22;17711;54.018;9.300;2023-03-31T07:35:37;13.00;99.90
31046;DHT22;17711;54.018;9.300;2023-03-31T07:38:39;12.90;99.90
31046;DHT22;17711;54.018;9.300;2023-03-31T07:41:12;12.90;99.90
31046;DHT22;17711;54.018;9.300;2023-03-31T07:43:43;13.00;99.90
31046;DHT22;17711;54.018;9.300;2023-03-31T07:46:23;13.10;99.90
31046;DHT22;17711;54.018;9.300;2023-03-31T07:48:55;13.10;99.90
31046;DHT22;17711;54.018;9.300;2023-03-31T07:51:26;13.20;99.90
31046;DHT22;17711;54.018;9.300;2023-03-31T07:53:56;13.00;99.90
31046;DHT22;17711;54.018;9.300;2023-03-31T07:56:55;13.00;99.90
31046;DHT22;17711;54.018;9.300;2023-03-31T07:59:28;13.00;99.90
31046;DHT22;17711;54.018;9.300;2023-03-31T08:01:58;12.90;99.90
31046;DHT22;17711;54.018;9.300;2023-03-31T08:04:32;12.90;99.90
31046;DHT22;17711;54.018;9.300;2023-03-31T08:07:03;12.90;99.90
31046;DHT22;17711;54.018;9.300;2023-03-31T08:09:35;12.90;99.90
31046;DHT22;17711;54.018;9.300;2023-03-31T08:12:06;13.00;99.90
31046;DHT22;17711;54.018;9.300;2023-03-31T08:14:37;13.00;99.90
31046;DHT22;17711;54.018;9.300;2023-03-31T08:17:08;13.10;99.90
31046;DHT22;17711;54.018;9.300;2023-03-31T08:19:39;13.10;99.90
31046;DHT22;17711;54.018;9.300;2023-03-31T08:22:14;13.10;99.90
31046;DHT22;17711;54.018;9.300;2023-03-31T08:24:49;13.00;99.90
31046;DHT22;17711;54.018;9.300;2023-03-31T08:27:20;13.10;99.90
31046;DHT22;17711;54.018;9.300;2023-03-31T08:29:53;13.10;99.90
31046;DHT22;17711;54.018;9.300;2023-03-31T08:32:24;13.00;99.90
31046;DHT22;17711;54.018;9.300;2023-03-31T08:34:55;13.10;99.90
31046;DHT22;17711;54.018;9.300;2023-03-31T08:37:24;13.10;99.90
31046;DHT22;17711;54.018;9.300;2023-03-31T08:39:55;13.00;99.90
31046;DHT22;17711;54.018;9.300;2023-03-31T08:42:34;13.00;99.90
31046;DHT22;17711;54.018;9.300;2023-03-31T08:45:12;13.10;99.90
31046;DHT22;17711;54.018;9.300;2023-03-31T08:47:47;13.10;99.90
31046;DHT22;17711;54.018;9.300;2023-03-31T08:50:29;13.20;99.90
31046;DHT22;17711;54.018;9.300;2023-03-31T08:53:55;13.30;99.90
31046;DHT22;17711;54.018;9.300;2023-03-31T08:56:46;13.40;99.90
31046;DHT22;17711;54.018;9.300;2023-03-31T08:59:26;13.30;99.90
31046;DHT22;17711;54.018;9.300;2023-03-31T09:02:49;13.30;99.90
31046;DHT22;17711;54.018;9.300;2023-03-31T09:05:39;13.20;99.90
31046;DHT22;17711;54.018;9.300;2023-03-31T09:08:34;13.20;99.90
31046;DHT22;17711;54.018;9.300;2023-03-31T09:11:52;13.20;99.90
31046;DHT22;17711;54.018;9.300;2023-03-31T09:14:37;13.00;99.90
31046;DHT22;17711;54.018;9.300;2023-03-31T09:17:16;12.90;99.90
31046;DHT22;17711;54.018;9.300;2023-03-31T09:19:49;12.90;99.90
31046;DHT22;17711;54.018;9.300;2023-03-31T09:22:32;13.00;99.90
31046;DHT22;17711;54.018;9.300;2023-03-31T09:25:06;12.90;99.90
31046;DHT22;17711;54.018;9.300;2023-03-31T09:27:40;12.90;99.90
31046;DHT22;17711;54.018;9.300;2023-03-31T09:30:16;12.90;99.90
31046;DHT22;17711;54.018;9.300;2023-03-31T09:32:48;12.70;99.90
31046;DHT22;17711;54.018;9.300;2023-03-31T09:35:22;12.80;99.90
31046;DHT22;17711;54.018;9.300;2023-03-31T09:37:54;12.80;99.90
31046;DHT22;17711;54.018;9.300;2023-03-31T09:40:30;12.90;99.90
31046;DHT22;17711;54.018;9.300;2023-03-31T09:43:20;12.90;99.90
31046;DHT22;17711;54.018;9.300;2023-03-31T09:45:53;12.90;99.90
31046;DHT22;17711;54.018;9.300;2023-03-31T09:48:26;13.00;99.90
31046;DHT22;17711;54.018;9.300;2023-03-31T09:50:57;13.30;99.90
31046;DHT22;17711;54.018;9.300;2023-03-31T09:53:37;13.40;99.90
31046;DHT22;17711;54.018;9.300;2023-03-31T09:56:08;13.50;99.90
31046;DHT22;17711;54.018;9.300;2023-03-31T09:59:11;13.70;99.90
31046;DHT22;17711;54.018;9.300;2023-03-31T10:01:41;13.90;99.90
31046;DHT22;17711;54.018;9.300;2023-03-31T10:04:19;14.00;99.90
31046;DHT22;17711;54.018;9.300;2023-03-31T10:06:50;14.20;99.90
31046;DHT22;17711;54.018;9.300;2023-03-31T10:09:31;14.30;99.90
31046;DHT22;17711;54.018;9.300;2023-03-31T10:12:05;14.40;99.90
31046;DHT22;17711;54.018;9.300;2023-03-31T10:14:39;14.50;99.90
31046;DHT22;17711;54.018;9.300;2023-03-31T10:17:13;14.40;99.90
31046;DHT22;17711;54.018;9.300;2023-03-31T10:19:47;14.20;99.90
31046;DHT22;17711;54.018;9.300;2023-03-31T10:22:26;14.20;99.90
31046;DHT22;17711;54.018;9.300;2023-03-31T10:25:09;14.20;99.90
31046;DHT22;17711;54.018;9.300;2023-03-31T10:27:40;14.20;99.90
31046;DHT22;17711;54.018;9.300;2023-03-31T10:30:11;14.20;99.90
31046;DHT22;17711;54.018;9.300;2023-03-31T10:32:41;14.10;99.90
31046;DHT22;17711;54.018;9.300;2023-03-31T10:35:21;14.20;99.90
31046;DHT22;17711;54.018;9.300;2023-03-31T10:37:54;14.20;99.90
31046;DHT22;17711;54.018;9.300;2023-03-31T10:40:26;14.20;99.90
31046;DHT22;17711;54.018;9.300;2023-03-31T10:43:02;14.10;99.90
31046;DHT22;17711;54.018;9.300;2023-03-31T10:45:37;14.10;99.90
31046;DHT22;17711;54.018;9.300;2023-03-31T10:48:17;14.00;99.90
31046;DHT22;17711;54.018;9.300;2023-03-31T10:50:47;13.90;99.90
31046;DHT22;17711;54.018;9.300;2023-03-31T10:53:17;13.80;99.90
31046;DHT22;17711;54.018;9.300;2023-03-31T10:56:05;13.80;99.90
31046;DHT22;17711;54.018;9.300;2023-03-31T10:59:03;13.70;99.90
31046;DHT22;17711;54.018;9.300;2023-03-31T11:01:48;13.90;99.90
31046;DHT22;17711;54.018;9.300;2023-03-31T11:04:37;14.20;99.90
31046;DHT22;17711;54.018;9.300;2023-03-31T11:07:18;14.50;99.90
31046;DHT22;17711;54.018;9.300;2023-03-31T11:10:06;14.50;99.90
31046;DHT22;17711;54.018;9.300;2023-03-31T11:12:49;14.50;99.90
31046;DHT22;17711;54.018;9.300;2023-03-31T11:15:23;14.50;99.90
31046;DHT22;17711;54.018;9.300;2023-03-31T11:18:15;14.60;99.90
31046;DHT22;17711;54.018;9.300;2023-03-31T11:20:53;14.70;99.90
31046;DHT22;17711;54.018;9.300;2023-03-31T11:23:32;14.80;99.90
31046;DHT22;17711;54.018;9.300;2023-03-31T11:26:09;14.80;99.90
31046;DHT22;17711;54.018;9.300;2023-03-31T11:28:57;15.10;99.90
31046;DHT22;17711;54.018;9.300;2023-03-31T11:31:43;15.50;99.90
31046;DHT22;17711;54.018;9.300;2023-03-31T11:37:24;16.00;99.90
31046;DHT22;17711;54.018;9.300;2023-03-31T11:40:20;16.20;99.90
31046;DHT22;17711;54.018;9.300;2023-03-31T11:42:52;16.50;99.90
31046;DHT22;17711;54.018;9.300;2023-03-31T11:45:27;16.60;99.90
31046;DHT22;17711;54.018;9.300;2023-03-31T11:48:00;16.50;99.90
31046;DHT22;17711;54.018;9.300;2023-03-31T11:50:36;16.50;99.90
31046;DHT22;17711;54.018;9.300;2023-03-31T11:53:14;16.10;99.90
31046;DHT22;17711;54.018;9.300;2023-03-31T11:55:47;15.80;99.90
31046;DHT22;17711;54.018;9.300;2023-03-31T11:58:19;15.70;99.90
31046;DHT22;17711;54.018;9.300;2023-03-31T12:00:54;15.80;99.90
31046;DHT22;17711;54.018;9.300;2023-03-31T12:03:34;15.90;99.90
31046;DHT22;17711;54.018;9.300;2023-03-31T12:06:11;15.90;99.90
31046;DHT22;17711;54.018;9.300;2023-03-31T12:08:53;15.80;99.90
31046;DHT22;17711;54.018;9.300;2023-03-31T12:11:30;15.70;99.90
31046;DHT22;17711;54.018;9.300;2023-03-31T12:14:12;15.60;99.90
31046;DHT22;17711;54.018;9.300;2023-03-31T12:16:45;15.50;99.90
31046;DHT22;17711;54.018;9.300;2023-03-31T12:19:17;15.40;99.90
31046;DHT22;17711;54.018;9.300;2023-03-31T12:21:52;15.40;99.90
31046;DHT22;17711;54.018;9.300;2023-03-31T12:24:22;15.30;99.90
31046;DHT22;17711;54.018;9.300;2023-03-31T12:26:58;15.30;99.90
31046;DHT22;17711;54.018;9.300;2023-03-31T12:29:32;15.20;99.90
31046;DHT22;17711;54.018;9.300;2023-03-31T12:32:09;15.30;99.90
31046;DHT22;17711;54.018;9.300;2023-03-31T12:34:44;15.30;99.90
31046;DHT22;17711;54.018;9.300;2023-03-31T12:37:42;15.40;99.90
31046;DHT22;17711;54.018;9.300;2023-03-31T12:40:22;15.50;99.90
31046;DHT22;17711;54.018;9.300;2023-03-31T12:43:03;15.60;99.90
31046;DHT22;17711;54.018;9.300;2023-03-31T12:45:37;15.80;99.90
31046;DHT22;17711;54.018;9.300;2023-03-31T12:48:38;15.80;99.90
31046;DHT22;17711;54.018;9.300;2023-03-31T12:51:22;15.90;99.90
31046;DHT22;17711;54.018;9.300;2023-03-31T12:54:07;16.00;99.90
31046;DHT22;17711;54.018;9.300;2023-03-31T12:57:03;15.90;99.90
31046;DHT22;17711;54.018;9.300;2023-03-31T12:59:34;15.80;99.90
31046;DHT22;17711;54.018;9.300;2023-03-31T13:02:22;15.70;99.90
31046;DHT22;17711;54.018;9.300;2023-03-31T13:04:53;15.60;99.90
31046;DHT22;17711;54.018;9.300;2023-03-31T13:07:38;15.50;99.90
31046;DHT22;17711;54.018;9.300;2023-03-31T13:10:25;15.40;99.90
31046;DHT22;17711;54.018;9.300;2023-03-31T13:13:01;15.20;99.90
31046;DHT22;17711;54.018;9.300;2023-03-31T13:15:31;15.20;99.90
31046;DHT22;17711;54.018;9.300;2023-03-31T13:18:01;15.20;99.90
31046;DHT22;17711;54.018;9.300;2023-03-31T13:20:34;15.10;99.90
31046;DHT22;17711;54.018;9.300;2023-03-31T13:23:08;15.00;99.90
31046;DHT22;17711;54.018;9.300;2023-03-31T13:25:47;15.10;99.90
31046;DHT22;17711;54.018;9.300;2023-03-31T13:28:30;15.20;99.90
31046;DHT22;17711;54.018;9.300;2023-03-31T13:31:03;15.00;99.90
31046;DHT22;17711;54.018;9.300;2023-03-31T13:33:41;14.90;99.90
31046;DHT22;17711;54.018;9.300;2023-03-31T13:36:48;14.80;99.90
31046;DHT22;17711;54.018;9.300;2023-03-31T13:42:36;14.40;99.90
31046;DHT22;17711;54.018;9.300;2023-03-31T13:45:21;14.20;99.90
31046;DHT22;17711;54.018;9.300;2023-03-31T13:48:17;14.10;99.90
31046;DHT22;17711;54.018;9.300;2023-03-31T13:54:02;13.90;99.90
31046;DHT22;17711;54.018;9.300;2023-03-31T13:57:05;13.80;99.90
31046;DHT22;17711;54.018;9.300;2023-03-31T14:00:06;13.80;99.90
31046;DHT22;17711;54.018;9.300;2023-03-31T14:02:52;14.10;99.90
31046;DHT22;17711;54.018;9.300;2023-03-31T14:05:29;14.30;99.90
31046;DHT22;17711;54.018;9.300;2023-03-31T14:08:04;14.50;99.90
31046;DHT22;17711;54.018;9.300;2023-03-31T14:10:37;14.80;99.90
31046;DHT22;17711;54.018;9.300;2023-03-31T14:13:09;14.90;99.90
31046;DHT22;17711;54.018;9.300;2023-03-31T14:15:40;14.90;99.90
31046;DHT22;17711;54.018;9.300;2023-03-31T14:18:14;15.00;99.90
31046;DHT22;17711;54.018;9.300;2023-03-31T14:20:45;15.00;99.90
31046;DHT22;17711;54.018;9.300;2023-03-31T14:23:26;15.20;99.90
31046;DHT22;17711;54.018;9.300;2023-03-31T14:26:04;15.30;99.90
31046;DHT22;17711;54.018;9.300;2023-03-31T14:28:51;15.40;99.90
31046;DHT22;17711;54.018;9.300;2023-03-31T14:31:27;15.70;99.90
31046;DHT22;17711;54.018;9.300;2023-03-31T14:34:30;16.00;99.90
31046;DHT22;17711;54.018;9.300;2023-03-31T14:37:04;16.50;99.90
31046;DHT22;17711;54.018;9.300;2023-03-31T14:39:36;16.70;99.90
31046;DHT22;17711;54.018;9.300;2023-03-31T14:42:13;17.00;99.90
31046;DHT22;17711;54.018;9.300;2023-03-31T14:44:43;17.10;99.90
31046;DHT22;17711;54.018;9.300;2023-03-31T14:47:15;17.00;99.90
31046;DHT22;17711;54.018;9.300;2023-03-31T14:49:59;17.00;99.90
31046;DHT22;17711;54.018;9.300;2023-03-31T14:52:30;17.10;99.90
31046;DHT22;17711;54.018;9.300;2023-03-31T14:55:00;17.10;99.90
31046;DHT22;17711;54.018;9.300;2023-03-31T14:57:31;17.00;99.90
31046;DHT22;17711;54.018;9.300;2023-03-31T15:00:03;16.70;99.90
31046;DHT22;17711;54.018;9.300;2023-03-31T15:02:39;16.40;99.90
31046;DHT22;17711;54.018;9.300;2023-03-31T15:05:20;16.00;99.90
31046;DHT22;17711;54.018;9.300;2023-03-31T15:07:56;15.90;99.90
31046;DHT22;17711;54.018;9.300;2023-03-31T15:10:25;15.70;99.90
31046;DHT22;17711;54.018;9.300;2023-03-31T15:12:58;15.50;99.90
31046;DHT22;17711;54.018;9.300;2023-03-31T15:15:26;15.20;99.90
31046;DHT22;17711;54.018;9.300;2023-03-31T15:17:55;15.10;99.90
31046;DHT22;17711;54.018;9.300;2023-03-31T15:20:28;15.00;99.90
31046;DHT22;17711;54.018;9.300;2023-03-31T15:23:04;14.90;99.90
31046;DHT22;17711;54.018;9.300;2023-03-31T15:25:49;14.80;99.90
31046;DHT22;17711;54.018;9.300;2023-03-31T15:28:26;14.80;99.90
31046;DHT22;17711;54.018;9.300;2023-03-31T15:31:08;14.80;99.90
31046;DHT22;17711;54.018;9.300;2023-03-31T15:33:49;14.90;99.90
31046;DHT22;17711;54.018;9.300;2023-03-31T15:36:22;14.90;99.90
31046;DHT22;17711;54.018;9.300;2023-03-31T15:38:54;14.90;99.90
31046;DHT22;17711;54.018;9.300;2023-03-31T15:41:28;14.90;99.90
31046;DHT22;17711;54.018;9.300;2023-03-31T15:44:05;14.80;99.90
31046;DHT22;17711;54.018;9.300;2023-03-31T15:46:53;14.70;99.90
31046;DHT22;17711;54.018;9.300;2023-03-31T15:49:24;14.60;99.90
31046;DHT22;17711;54.018;9.300;2023-03-31T15:51:54;14.60;99.90
31046;DHT22;17711;54.018;9.300;2023-03-31T15:54:35;14.40;99.90
31046;DHT22;17711;54.018;9.300;2023-03-31T15:57:04;14.40;99.90
31046;DHT22;17711;54.018;9.300;2023-03-31T15:59:47;14.30;99.90
31046;DHT22;17711;54.018;9.300;2023-03-31T16:02:30;14.10;99.90
31046;DHT22;17711;54.018;9.300;2023-03-31T16:05:03;14.10;99.90
31046;DHT22;17711;54.018;9.300;2023-03-31T16:07:54;14.00;99.90
31046;DHT22;17711;54.018;9.300;2023-03-31T16:10:26;13.90;99.90
31046;DHT22;17711;54.018;9.300;2023-03-31T16:13:02;13.80;99.90
31046;DHT22;17711;54.018;9.300;2023-03-31T16:15:45;13.70;99.90
31046;DHT22;17711;54.018;9.300;2023-03-31T16:18:32;13.60;99.90
31046;DHT22;17711;54.018;9.300;2023-03-31T16:21:04;13.60;99.90
31046;DHT22;17711;54.018;9.300;2023-03-31T16:24:15;13.60;99.90
31046;DHT22;17711;54.018;9.300;2023-03-31T16:27:07;13.60;99.90
31046;DHT22;17711;54.018;9.300;2023-03-31T16:29:40;13.60;99.90
31046;DHT22;17711;54.018;9.300;2023-03-31T16:32:16;13.50;99.90
31046;DHT22;17711;54.018;9.300;2023-03-31T16:34:58;13.50;99.90
31046;DHT22;17711;54.018;9.300;2023-03-31T16:37:30;13.50;99.90
31046;DHT22;17711;54.018;9.300;2023-03-31T16:39:59;13.50;99.90